sensor_id;sensor_type;location;lat;lon;timestamp;temperature;humidity
1175;DHT22;576;48.418;10.074;2023-02-11T00:01:26;21.50;48.00
1175;DHT22;576;48.418;10.074;2023-02-11T00:03:56;21.40;48.00
1175;DHT22;576;48.418;10.074;2023-02-11T00:06:27;21.40;48.00
1175;DHT22;576;48.418;10.074;2023-02-11T00:08:56;21.50;48.00
1175;DHT22;576;48.418;10.074;2023-02-11T00:11:25;21.40;48.00
1175;DHT22;576;48.418;10.074;2023-02-11T00:13:56;21.40;48.00
1175;DHT22;576;48.418;10.074;2023-02-11T00:16:26;21.40;48.00
1175;DHT22;576;48.418;10.074;2023-02-11T00:18:54;21.40;48.00
1175;DHT22;576;48.418;10.074;2023-02-11T00:21:24;21.50;48.10
1175;DHT22;576;48.418;10.074;2023-02-11T00:23:52;21.50;48.10
1175;DHT22;576;48.418;10.074;2023-02-11T00:26:24;21.50;48.10
1175;DHT22;576;48.418;10.074;2023-02-11T00:28:53;21.50;48.10
1175;DHT22;576;48.418;10.074;2023-02-11T00:31:23;21.50;48.10
1175;DHT22;576;48.418;10.074;2023-02-11T00:33:53;21.50;48.10
1175;DHT22;576;48.418;10.074;2023-02-11T00:36:24;21.50;48.10
1175;DHT22;576;48.418;10.074;2023-02-11T00:38:54;21.50;48.10
1175;DHT22;576;48.418;10.074;2023-02-11T00:41:23;21.50;48.10
1175;DHT22;576;48.418;10.074;2023-02-11T00:43:52;21.50;48.10
1175;DHT22;576;48.418;10.074;2023-02-11T00:46:21;21.50;48.10
1175;DHT22;576;48.418;10.074;2023-02-11T00:48:49;21.50;48.10
1175;DHT22;576;48.418;10.074;2023-02-11T00:51:22;21.50;48.10
1175;DHT22;576;48.418;10.074;2023-02-11T00:53:50;21.50;48.10
1175;DHT22;576;48.418;10.074;2023-02-11T00:56:19;21.50;48.10
1175;DHT22;576;48.418;10.074;2023-02-11T00:58:48;21.50;48.10
1175;DHT22;576;48.418;10.074;2023-02-11T01:01:16;21.50;48.10
1175;DHT22;576;48.418;10.074;2023-02-11T01:03:44;21.50;48.00
1175;DHT22;576;48.418;10.074;2023-02-11T01:06:13;21.50;48.00
1175;DHT22;576;48.418;10.074;2023-02-11T01:08:43;21.50;48.00
1175;DHT22;576;48.418;10.074;2023-02-11T01:11:14;21.50;48.00
1175;DHT22;576;48.418;10.074;2023-02-11T01:13:44;21.50;48.00
1175;DHT22;576;48.418;10.074;2023-02-11T01:16:14;21.50;48.00
1175;DHT22;576;48.418;10.074;2023-02-11T01:18:44;21.50;48.00
1175;DHT22;576;48.418;10.074;2023-02-11T01:21:12;21.50;48.00
1175;DHT22;576;48.418;10.074;2023-02-11T01:23:43;21.50;48.00
1175;DHT22;576;48.418;10.074;2023-02-11T01:26:11;21.50;48.00
1175;DHT22;576;48.418;10.074;2023-02-11T01:28:39;21.50;48.00
1175;DHT22;576;48.418;10.074;2023-02-11T01:31:07;21.50;48.00
1175;DHT22;576;48.418;10.074;2023-02-11T01:33:36;21.50;48.00
1175;DHT22;576;48.418;10.074;2023-02-11T01:36:06;21.50;48.00
1175;DHT22;576;48.418;10.074;2023-02-11T01:38:34;21.50;48.00
1175;DHT22;576;48.418;10.074;2023-02-11T01:41:06;21.40;48.00
1175;DHT22;576;48.418;10.074;2023-02-11T01:43:38;21.40;48.10
1175;DHT22;576;48.418;10.074;2023-02-11T01:46:28;21.40;48.10
1175;DHT22;576;48.418;10.074;2023-02-11T01:49:00;21.40;48.10
1175;DHT22;576;48.418;10.074;2023-02-11T01:51:33;21.40;48.10
1175;DHT22;576;48.418;10.074;2023-02-11T01:54:04;21.40;48.10
1175;DHT22;576;48.418;10.074;2023-02-11T01:56:55;21.40;48.10
1175;DHT22;576;48.418;10.074;2023-02-11T01:59:45;21.40;48.10
1175;DHT22;576;48.418;10.074;2023-02-11T02:02:16;21.30;48.20
1175;DHT22;576;48.418;10.074;2023-02-11T02:04:52;21.30;48.20
1175;DHT22;576;48.418;10.074;2023-02-11T02:07:29;21.30;48.20
1175;DHT22;576;48.418;10.074;2023-02-11T02:10:03;21.30;48.20
1175;DHT22;576;48.418;10.074;2023-02-11T02:12:36;21.30;48.20
1175;DHT22;576;48.418;10.074;2023-02-11T02:15:21;21.30;48.20
1175;DHT22;576;48.418;10.074;2023-02-11T02:17:56;21.30;48.10
1175;DHT22;576;48.418;10.074;2023-02-11T02:20:55;21.30;48.10
1175;DHT22;576;48.418;10.074;2023-02-11T02:23:37;21.30;48.10
1175;DHT22;576;48.418;10.074;2023-02-11T02:29:53;21.30;48.10
1175;DHT22;576;48.418;10.074;2023-02-11T02:32:32;21.30;48.10
1175;DHT22;576;48.418;10.074;2023-02-11T02:35:10;21.30;48.10
1175;DHT22;576;48.418;10.074;2023-02-11T02:37:49;21.30;48.10
1175;DHT22;576;48.418;10.074;2023-02-11T02:40:22;21.30;48.10
1175;DHT22;576;48.418;10.074;2023-02-11T02:42:52;21.30;48.10
1175;DHT22;576;48.418;10.074;2023-02-11T02:45:21;21.30;48.10
1175;DHT22;576;48.418;10.074;2023-02-11T02:47:51;21.30;48.00
1175;DHT22;576;48.418;10.074;2023-02-11T02:50:23;21.30;48.00
1175;DHT22;576;48.418;10.074;2023-02-11T02:53:06;21.30;48.00
1175;DHT22;576;48.418;10.074;2023-02-11T02:55:56;21.30;48.00
1175;DHT22;576;48.418;10.074;2023-02-11T02:58:42;21.30;48.00
1175;DHT22;576;48.418;10.074;2023-02-11T03:01:22;21.30;48.00
1175;DHT22;576;48.418;10.074;2023-02-11T03:04:01;21.30;48.00
1175;DHT22;576;48.418;10.074;2023-02-11T03:06:32;21.30;48.00
1175;DHT22;576;48.418;10.074;2023-02-11T03:09:07;21.30;48.00
1175;DHT22;576;48.418;10.074;2023-02-11T03:11:38;21.30;48.00
1175;DHT22;576;48.418;10.074;2023-02-11T03:14:09;21.30;48.00
1175;DHT22;576;48.418;10.074;2023-02-11T03:16:38;21.30;48.00
1175;DHT22;576;48.418;10.074;2023-02-11T03:19:12;21.30;48.00
1175;DHT22;576;48.418;10.074;2023-02-11T03:21:42;21.30;48.00
1175;DHT22;576;48.418;10.074;2023-02-11T03:24:14;21.30;48.00
1175;DHT22;576;48.418;10.074;2023-02-11T03:26:47;21.30;48.00
1175;DHT22;576;48.418;10.074;2023-02-11T03:29:20;21.30;48.00
1175;DHT22;576;48.418;10.074;2023-02-11T03:31:57;21.30;48.00
1175;DHT22;576;48.418;10.074;2023-02-11T03:34:32;21.30;48.00
1175;DHT22;576;48.418;10.074;2023-02-11T03:37:06;21.30;48.00
1175;DHT22;576;48.418;10.074;2023-02-11T03:39:39;21.30;48.00
1175;DHT22;576;48.418;10.074;2023-02-11T03:42:10;21.30;48.00
1175;DHT22;576;48.418;10.074;2023-02-11T03:44:43;21.30;48.00
1175;DHT22;576;48.418;10.074;2023-02-11T03:47:14;21.30;48.00
1175;DHT22;576;48.418;10.074;2023-02-11T03:49:48;21.30;48.00
1175;DHT22;576;48.418;10.074;2023-02-11T03:52:19;21.30;48.00
1175;DHT22;576;48.418;10.074;2023-02-11T03:54:52;21.30;48.00
1175;DHT22;576;48.418;10.074;2023-02-11T03:57:21;21.30;48.00
1175;DHT22;576;48.418;10.074;2023-02-11T03:59:54;21.30;48.00
1175;DHT22;576;48.418;10.074;2023-02-11T04:02:25;21.30;48.00
1175;DHT22;576;48.418;10.074;2023-02-11T04:04:55;21.30;48.00
1175;DHT22;576;48.418;10.074;2023-02-11T04:07:24;21.30;48.00
1175;DHT22;576;48.418;10.074;2023-02-11T04:09:53;21.30;48.00
1175;DHT22;576;48.418;10.074;2023-02-11T04:12:21;21.30;48.00
1175;DHT22;576;48.418;10.074;2023-02-11T04:14:49;21.30;48.00
1175;DHT22;576;48.418;10.074;2023-02-11T04:17:17;21.30;48.10
1175;DHT22;576;48.418;10.074;2023-02-11T04:19:46;21.30;48.10
1175;DHT22;576;48.418;10.074;2023-02-11T04:22:15;21.30;48.00
1175;DHT22;576;48.418;10.074;2023-02-11T04:24:43;21.30;48.00
1175;DHT22;576;48.418;10.074;2023-02-11T04:27:11;21.30;48.00
1175;DHT22;576;48.418;10.074;2023-02-11T04:29:39;21.30;48.00
1175;DHT22;576;48.418;10.074;2023-02-11T04:32:08;21.30;48.00
1175;DHT22;576;48.418;10.074;2023-02-11T04:34:36;21.30;48.00
1175;DHT22;576;48.418;10.074;2023-02-11T04:37:04;21.30;48.00
1175;DHT22;576;48.418;10.074;2023-02-11T04:39:34;21.30;48.00
1175;DHT22;576;48.418;10.074;2023-02-11T04:42:02;21.30;48.00
1175;DHT22;576;48.418;10.074;2023-02-11T04:44:31;21.30;47.90
1175;DHT22;576;48.418;10.074;2023-02-11T04:46:59;21.30;47.90
1175;DHT22;576;48.418;10.074;2023-02-11T04:49:27;21.30;47.90
1175;DHT22;576;48.418;10.074;2023-02-11T04:51:55;21.30;47.90
1175;DHT22;576;48.418;10.074;2023-02-11T04:54:24;21.30;47.90
1175;DHT22;576;48.418;10.074;2023-02-11T04:56:53;21.20;47.90
1175;DHT22;576;48.418;10.074;2023-02-11T04:59:21;21.30;47.90
1175;DHT22;576;48.418;10.074;2023-02-11T05:01:49;21.30;47.90
1175;DHT22;576;48.418;10.074;2023-02-11T05:04:17;21.20;47.90
1175;DHT22;576;48.418;10.074;2023-02-11T05:06:46;21.30;47.90
1175;DHT22;576;48.418;10.074;2023-02-11T05:09:14;21.30;47.90
1175;DHT22;576;48.418;10.074;2023-02-11T05:11:42;21.20;47.90
1175;DHT22;576;48.418;10.074;2023-02-11T05:14:12;21.20;47.90
1175;DHT22;576;48.418;10.074;2023-02-11T05:16:40;21.20;47.90
1175;DHT22;576;48.418;10.074;2023-02-11T05:19:08;21.20;47.90
1175;DHT22;576;48.418;10.074;2023-02-11T05:21:36;21.20;47.90
1175;DHT22;576;48.418;10.074;2023-02-11T05:24:08;21.20;47.90
1175;DHT22;576;48.418;10.074;2023-02-11T05:26:36;21.20;47.90
1175;DHT22;576;48.418;10.074;2023-02-11T05:29:04;21.20;47.90
1175;DHT22;576;48.418;10.074;2023-02-11T05:31:33;21.20;47.90
1175;DHT22;576;48.418;10.074;2023-02-11T05:34:02;21.20;47.90
1175;DHT22;576;48.418;10.074;2023-02-11T05:36:30;21.20;47.90
1175;DHT22;576;48.418;10.074;2023-02-11T05:38:59;21.20;47.90
1175;DHT22;576;48.418;10.074;2023-02-11T05:41:27;21.20;47.90
1175;DHT22;576;48.418;10.074;2023-02-11T05:43:55;21.20;47.90
1175;DHT22;576;48.418;10.074;2023-02-11T05:46:23;21.20;47.90
1175;DHT22;576;48.418;10.074;2023-02-11T05:48:53;21.20;47.90
1175;DHT22;576;48.418;10.074;2023-02-11T05:51:22;21.20;47.90
1175;DHT22;576;48.418;10.074;2023-02-11T05:53:51;21.20;47.90
1175;DHT22;576;48.418;10.074;2023-02-11T05:56:19;21.20;47.80
1175;DHT22;576;48.418;10.074;2023-02-11T05:58:47;21.30;47.80
1175;DHT22;576;48.418;10.074;2023-02-11T06:01:15;21.30;47.80
1175;DHT22;576;48.418;10.074;2023-02-11T06:03:43;21.20;47.90
1175;DHT22;576;48.418;10.074;2023-02-11T06:06:13;21.30;47.90
1175;DHT22;576;48.418;10.074;2023-02-11T06:08:41;21.20;48.00
1175;DHT22;576;48.418;10.074;2023-02-11T06:11:09;21.20;48.10
1175;DHT22;576;48.418;10.074;2023-02-11T06:13:37;21.20;48.20
1175;DHT22;576;48.418;10.074;2023-02-11T06:16:05;21.20;48.30
1175;DHT22;576;48.418;10.074;2023-02-11T06:18:34;21.20;48.30
1175;DHT22;576;48.418;10.074;2023-02-11T06:21:06;21.20;48.30
1175;DHT22;576;48.418;10.074;2023-02-11T06:23:36;21.20;48.40
1175;DHT22;576;48.418;10.074;2023-02-11T06:26:05;21.20;48.40
1175;DHT22;576;48.418;10.074;2023-02-11T06:28:34;21.10;48.50
1175;DHT22;576;48.418;10.074;2023-02-11T06:31:06;21.10;48.50
1175;DHT22;576;48.418;10.074;2023-02-11T06:33:35;21.10;48.60
1175;DHT22;576;48.418;10.074;2023-02-11T06:36:08;21.10;48.60
1175;DHT22;576;48.418;10.074;2023-02-11T06:38:39;21.10;48.60
1175;DHT22;576;48.418;10.074;2023-02-11T06:41:09;21.10;48.60
1175;DHT22;576;48.418;10.074;2023-02-11T06:43:41;21.10;48.60
1175;DHT22;576;48.418;10.074;2023-02-11T06:46:09;21.10;48.60
1175;DHT22;576;48.418;10.074;2023-02-11T06:48:37;21.10;48.60
1175;DHT22;576;48.418;10.074;2023-02-11T06:51:08;21.20;48.50
1175;DHT22;576;48.418;10.074;2023-02-11T06:53:37;21.20;48.40
1175;DHT22;576;48.418;10.074;2023-02-11T06:56:09;21.20;48.30
1175;DHT22;576;48.418;10.074;2023-02-11T06:58:38;21.20;48.20
1175;DHT22;576;48.418;10.074;2023-02-11T07:01:07;21.20;48.10
1175;DHT22;576;48.418;10.074;2023-02-11T07:03:37;21.20;48.10
1175;DHT22;576;48.418;10.074;2023-02-11T07:06:06;21.20;48.00
1175;DHT22;576;48.418;10.074;2023-02-11T07:08:36;21.20;48.00
1175;DHT22;576;48.418;10.074;2023-02-11T07:11:09;21.30;48.00
1175;DHT22;576;48.418;10.074;2023-02-11T07:13:38;21.30;47.90
1175;DHT22;576;48.418;10.074;2023-02-11T07:16:08;21.20;47.90
1175;DHT22;576;48.418;10.074;2023-02-11T07:18:36;21.20;47.90
1175;DHT22;576;48.418;10.074;2023-02-11T07:21:05;21.30;48.20
1175;DHT22;576;48.418;10.074;2023-02-11T07:23:34;21.30;48.30
1175;DHT22;576;48.418;10.074;2023-02-11T07:26:03;21.30;48.30
1175;DHT22;576;48.418;10.074;2023-02-11T07:28:34;21.30;48.30
1175;DHT22;576;48.418;10.074;2023-02-11T07:31:06;21.30;48.30
1175;DHT22;576;48.418;10.074;2023-02-11T07:33:35;21.30;48.30
1175;DHT22;576;48.418;10.074;2023-02-11T07:36:04;21.30;48.30
1175;DHT22;576;48.418;10.074;2023-02-11T07:38:34;21.30;48.30
1175;DHT22;576;48.418;10.074;2023-02-11T07:41:06;21.40;48.20
1175;DHT22;576;48.418;10.074;2023-02-11T07:43:37;21.40;48.20
1175;DHT22;576;48.418;10.074;2023-02-11T07:46:08;21.40;48.10
1175;DHT22;576;48.418;10.074;2023-02-11T07:48:37;21.40;48.10
1175;DHT22;576;48.418;10.074;2023-02-11T07:51:07;21.40;48.10
1175;DHT22;576;48.418;10.074;2023-02-11T07:53:36;21.40;48.10
1175;DHT22;576;48.418;10.074;2023-02-11T07:56:05;21.50;48.10
1175;DHT22;576;48.418;10.074;2023-02-11T07:58:35;21.50;48.00
1175;DHT22;576;48.418;10.074;2023-02-11T08:01:06;21.50;48.00
1175;DHT22;576;48.418;10.074;2023-02-11T08:03:35;21.50;48.00
1175;DHT22;576;48.418;10.074;2023-02-11T08:06:05;21.50;47.80
1175;DHT22;576;48.418;10.074;2023-02-11T08:08:33;21.50;47.80
1175;DHT22;576;48.418;10.074;2023-02-11T08:11:05;21.50;47.70
1175;DHT22;576;48.418;10.074;2023-02-11T08:13:36;21.50;47.80
1175;DHT22;576;48.418;10.074;2023-02-11T08:16:05;21.50;47.80
1175;DHT22;576;48.418;10.074;2023-02-11T08:18:34;21.50;47.80
1175;DHT22;576;48.418;10.074;2023-02-11T08:21:07;21.50;47.80
1175;DHT22;576;48.418;10.074;2023-02-11T08:23:36;21.50;47.80
1175;DHT22;576;48.418;10.074;2023-02-11T08:26:06;21.40;47.80
1175;DHT22;576;48.418;10.074;2023-02-11T08:28:36;21.40;47.80
1175;DHT22;576;48.418;10.074;2023-02-11T08:31:05;21.40;47.80
1175;DHT22;576;48.418;10.074;2023-02-11T08:33:34;21.40;47.90
1175;DHT22;576;48.418;10.074;2023-02-11T08:36:07;21.40;47.90
1175;DHT22;576;48.418;10.074;2023-02-11T08:38:36;21.40;47.90
1175;DHT22;576;48.418;10.074;2023-02-11T08:41:04;21.40;47.90
1175;DHT22;576;48.418;10.074;2023-02-11T08:43:34;21.40;47.90
1175;DHT22;576;48.418;10.074;2023-02-11T08:46:04;21.40;48.70
1175;DHT22;576;48.418;10.074;2023-02-11T08:48:32;21.30;48.60
1175;DHT22;576;48.418;10.074;2023-02-11T08:51:05;21.40;48.40
1175;DHT22;576;48.418;10.074;2023-02-11T08:53:33;21.40;48.40
1175;DHT22;576;48.418;10.074;2023-02-11T08:56:02;21.40;48.80
1175;DHT22;576;48.418;10.074;2023-02-11T08:58:30;21.50;48.80
1175;DHT22;576;48.418;10.074;2023-02-11T09:00:59;21.50;49.00
1175;DHT22;576;48.418;10.074;2023-02-11T09:03:28;21.60;49.10
1175;DHT22;576;48.418;10.074;2023-02-11T09:05:56;21.60;49.00
1175;DHT22;576;48.418;10.074;2023-02-11T09:08:24;21.60;49.10
1175;DHT22;576;48.418;10.074;2023-02-11T09:10:55;21.60;49.20
1175;DHT22;576;48.418;10.074;2023-02-11T09:13:23;21.60;49.30
1175;DHT22;576;48.418;10.074;2023-02-11T09:15:51;21.60;49.20
1175;DHT22;576;48.418;10.074;2023-02-11T09:18:19;21.60;49.30
1175;DHT22;576;48.418;10.074;2023-02-11T09:20:49;21.60;49.30
1175;DHT22;576;48.418;10.074;2023-02-11T09:23:17;21.50;49.40
1175;DHT22;576;48.418;10.074;2023-02-11T09:25:46;21.50;49.40
1175;DHT22;576;48.418;10.074;2023-02-11T09:28:14;21.50;49.00
1175;DHT22;576;48.418;10.074;2023-02-11T09:30:42;21.40;49.40
1175;DHT22;576;48.418;10.074;2023-02-11T09:33:10;21.40;49.50
1175;DHT22;576;48.418;10.074;2023-02-11T09:35:39;21.40;49.30
1175;DHT22;576;48.418;10.074;2023-02-11T09:38:08;21.40;49.10
1175;DHT22;576;48.418;10.074;2023-02-11T09:40:41;21.40;49.20
1175;DHT22;576;48.418;10.074;2023-02-11T09:43:15;21.30;49.40
1175;DHT22;576;48.418;10.074;2023-02-11T09:45:44;21.40;49.50
1175;DHT22;576;48.418;10.074;2023-02-11T09:48:14;21.40;49.40
1175;DHT22;576;48.418;10.074;2023-02-11T09:50:44;21.40;49.30
1175;DHT22;576;48.418;10.074;2023-02-11T09:53:19;21.40;49.30
1175;DHT22;576;48.418;10.074;2023-02-11T09:55:52;21.50;49.20
1175;DHT22;576;48.418;10.074;2023-02-11T09:58:26;21.50;49.20
1175;DHT22;576;48.418;10.074;2023-02-11T10:01:02;21.50;49.00
1175;DHT22;576;48.418;10.074;2023-02-11T10:03:49;21.50;49.10
1175;DHT22;576;48.418;10.074;2023-02-11T10:06:32;21.60;49.00
1175;DHT22;576;48.418;10.074;2023-02-11T10:09:25;21.60;48.90
1175;DHT22;576;48.418;10.074;2023-02-11T10:12:08;21.70;48.70
1175;DHT22;576;48.418;10.074;2023-02-11T10:14:53;21.70;48.60
1175;DHT22;576;48.418;10.074;2023-02-11T10:17:31;21.70;48.60
1175;DHT22;576;48.418;10.074;2023-02-11T10:20:13;21.80;48.50
1175;DHT22;576;48.418;10.074;2023-02-11T10:22:46;21.80;48.30
1175;DHT22;576;48.418;10.074;2023-02-11T10:25:23;21.80;48.40
1175;DHT22;576;48.418;10.074;2023-02-11T10:27:54;21.80;48.50
1175;DHT22;576;48.418;10.074;2023-02-11T10:30:28;21.80;48.30
1175;DHT22;576;48.418;10.074;2023-02-11T10:33:01;21.80;48.20
1175;DHT22;576;48.418;10.074;2023-02-11T10:35:31;21.80;48.40
1175;DHT22;576;48.418;10.074;2023-02-11T10:37:59;21.90;48.40
1175;DHT22;576;48.418;10.074;2023-02-11T10:40:30;21.90;48.20
1175;DHT22;576;48.418;10.074;2023-02-11T10:43:02;22.00;48.20
1175;DHT22;576;48.418;10.074;2023-02-11T10:45:33;22.00;48.30
1175;DHT22;576;48.418;10.074;2023-02-11T10:48:04;22.00;48.10
1175;DHT22;576;48.418;10.074;2023-02-11T10:50:33;21.90;47.90
1175;DHT22;576;48.418;10.074;2023-02-11T10:53:16;22.00;48.20
1175;DHT22;576;48.418;10.074;2023-02-11T10:55:52;22.00;48.20
1175;DHT22;576;48.418;10.074;2023-02-11T10:58:24;22.10;48.00
1175;DHT22;576;48.418;10.074;2023-02-11T11:00:54;22.30;47.90
1175;DHT22;576;48.418;10.074;2023-02-11T11:03:25;22.40;47.70
1175;DHT22;576;48.418;10.074;2023-02-11T11:05:55;22.50;47.60
1175;DHT22;576;48.418;10.074;2023-02-11T11:08:39;22.70;47.50
1175;DHT22;576;48.418;10.074;2023-02-11T11:11:10;22.80;47.50
1175;DHT22;576;48.418;10.074;2023-02-11T11:13:39;22.90;47.10
1175;DHT22;576;48.418;10.074;2023-02-11T11:16:16;23.00;47.30
1175;DHT22;576;48.418;10.074;2023-02-11T11:18:46;23.10;47.00
1175;DHT22;576;48.418;10.074;2023-02-11T11:21:18;23.10;47.20
1175;DHT22;576;48.418;10.074;2023-02-11T11:23:50;23.20;47.40
1175;DHT22;576;48.418;10.074;2023-02-11T11:26:22;23.30;47.40
1175;DHT22;576;48.418;10.074;2023-02-11T11:29:05;23.40;47.30
1175;DHT22;576;48.418;10.074;2023-02-11T11:31:45;23.60;47.20
1175;DHT22;576;48.418;10.074;2023-02-11T11:34:21;23.70;46.90
1175;DHT22;576;48.418;10.074;2023-02-11T11:36:50;23.70;47.20
1175;DHT22;576;48.418;10.074;2023-02-11T11:39:22;23.70;47.50
1175;DHT22;576;48.418;10.074;2023-02-11T11:41:54;23.70;47.30
1175;DHT22;576;48.418;10.074;2023-02-11T11:44:29;23.80;47.10
1175;DHT22;576;48.418;10.074;2023-02-11T11:47:24;23.90;46.90
1175;DHT22;576;48.418;10.074;2023-02-11T11:50:15;24.00;46.50
1175;DHT22;576;48.418;10.074;2023-02-11T11:52:50;24.00;46.20
1175;DHT22;576;48.418;10.074;2023-02-11T11:55:24;24.10;45.80
1175;DHT22;576;48.418;10.074;2023-02-11T11:57:55;24.20;45.40
1175;DHT22;576;48.418;10.074;2023-02-11T12:00:39;24.30;45.30
1175;DHT22;576;48.418;10.074;2023-02-11T12:06:26;24.40;45.10
1175;DHT22;576;48.418;10.074;2023-02-11T12:09:08;24.50;45.10
1175;DHT22;576;48.418;10.074;2023-02-11T12:11:52;24.60;45.10
1175;DHT22;576;48.418;10.074;2023-02-11T12:14:34;24.60;45.00
1175;DHT22;576;48.418;10.074;2023-02-11T12:17:13;24.60;45.20
1175;DHT22;576;48.418;10.074;2023-02-11T12:20:11;24.60;45.10
1175;DHT22;576;48.418;10.074;2023-02-11T12:22:53;24.60;45.00
1175;DHT22;576;48.418;10.074;2023-02-11T12:25:28;24.70;44.90
1175;DHT22;576;48.418;10.074;2023-02-11T12:28:06;24.80;44.70
1175;DHT22;576;48.418;10.074;2023-02-11T12:30:52;24.80;44.70
1175;DHT22;576;48.418;10.074;2023-02-11T12:33:36;24.80;44.80
1175;DHT22;576;48.418;10.074;2023-02-11T12:36:10;24.90;44.60
1175;DHT22;576;48.418;10.074;2023-02-11T12:38:52;24.90;44.60
1175;DHT22;576;48.418;10.074;2023-02-11T12:41:44;24.90;44.70
1175;DHT22;576;48.418;10.074;2023-02-11T12:44:42;24.90;44.60
1175;DHT22;576;48.418;10.074;2023-02-11T12:47:19;24.90;44.60
1175;DHT22;576;48.418;10.074;2023-02-11T12:50:00;25.00;44.70
1175;DHT22;576;48.418;10.074;2023-02-11T12:52:43;25.00;45.00
1175;DHT22;576;48.418;10.074;2023-02-11T12:55:19;25.00;45.20
1175;DHT22;576;48.418;10.074;2023-02-11T12:57:49;25.00;45.20
1175;DHT22;576;48.418;10.074;2023-02-11T13:00:21;25.10;45.40
1175;DHT22;576;48.418;10.074;2023-02-11T13:02:58;25.10;45.50
1175;DHT22;576;48.418;10.074;2023-02-11T13:05:32;25.00;45.50
1175;DHT22;576;48.418;10.074;2023-02-11T13:08:07;24.90;45.90
1175;DHT22;576;48.418;10.074;2023-02-11T13:10:40;24.70;46.20
1175;DHT22;576;48.418;10.074;2023-02-11T13:13:14;24.70;46.40
1175;DHT22;576;48.418;10.074;2023-02-11T13:15:50;24.70;46.70
1175;DHT22;576;48.418;10.074;2023-02-11T13:18:39;24.70;46.30
1175;DHT22;576;48.418;10.074;2023-02-11T13:21:30;24.80;46.30
1175;DHT22;576;48.418;10.074;2023-02-11T13:24:07;24.90;46.10
1175;DHT22;576;48.418;10.074;2023-02-11T13:26:41;25.00;46.20
1175;DHT22;576;48.418;10.074;2023-02-11T13:29:20;25.00;46.00
1175;DHT22;576;48.418;10.074;2023-02-11T13:31:53;25.00;46.00
1175;DHT22;576;48.418;10.074;2023-02-11T13:34:25;24.90;46.20
1175;DHT22;576;48.418;10.074;2023-02-11T13:36:55;24.80;46.30
1175;DHT22;576;48.418;10.074;2023-02-11T13:39:24;24.60;46.60
1175;DHT22;576;48.418;10.074;2023-02-11T13:42:01;24.50;46.80
1175;DHT22;576;48.418;10.074;2023-02-11T13:44:33;24.40;47.00
1175;DHT22;576;48.418;10.074;2023-02-11T13:47:03;24.20;47.20
1175;DHT22;576;48.418;10.074;2023-02-11T13:49:38;24.10;47.40
1175;DHT22;576;48.418;10.074;2023-02-11T13:52:20;24.00;47.60
1175;DHT22;576;48.418;10.074;2023-02-11T13:54:51;23.80;47.80
1175;DHT22;576;48.418;10.074;2023-02-11T13:57:34;23.70;48.00
1175;DHT22;576;48.418;10.074;2023-02-11T14:03:37;23.60;48.20
1175;DHT22;576;48.418;10.074;2023-02-11T14:06:26;23.50;48.30
1175;DHT22;576;48.418;10.074;2023-02-11T14:09:35;23.40;48.30
1175;DHT22;576;48.418;10.074;2023-02-11T14:12:24;23.40;48.30
1175;DHT22;576;48.418;10.074;2023-02-11T14:17:42;23.30;48.20
1175;DHT22;576;48.418;10.074;2023-02-11T14:20:31;23.30;48.30
1175;DHT22;576;48.418;10.074;2023-02-11T14:23:03;23.20;48.40
1175;DHT22;576;48.418;10.074;2023-02-11T14:25:31;23.20;48.40
1175;DHT22;576;48.418;10.074;2023-02-11T14:28:05;23.20;48.50
1175;DHT22;576;48.418;10.074;2023-02-11T14:30:43;23.10;48.50
1175;DHT22;576;48.418;10.074;2023-02-11T14:33:22;23.10;48.50
1175;DHT22;576;48.418;10.074;2023-02-11T14:36:04;23.10;48.50
1175;DHT22;576;48.418;10.074;2023-02-11T14:38:44;23.10;48.50
1175;DHT22;576;48.418;10.074;2023-02-11T14:41:18;23.10;48.50
1175;DHT22;576;48.418;10.074;2023-02-11T14:43:50;23.10;48.50
1175;DHT22;576;48.418;10.074;2023-02-11T14:46:20;23.10;48.60
1175;DHT22;576;48.418;10.074;2023-02-11T14:48:52;23.10;48.60
1175;DHT22;576;48.418;10.074;2023-02-11T14:51:24;23.10;48.50
1175;DHT22;576;48.418;10.074;2023-02-11T14:53:57;23.10;48.50
1175;DHT22;576;48.418;10.074;2023-02-11T14:56:27;23.10;48.50
1175;DHT22;576;48.418;10.074;2023-02-11T14:58:57;23.00;48.50
1175;DHT22;576;48.418;10.074;2023-02-11T15:01:28;23.00;48.50
1175;DHT22;576;48.418;10.074;2023-02-11T15:03:58;22.90;48.60
1175;DHT22;576;48.418;10.074;2023-02-11T15:06:30;22.90;48.60
1175;DHT22;576;48.418;10.074;2023-02-11T15:09:02;22.90;48.60
1175;DHT22;576;48.418;10.074;2023-02-11T15:11:33;22.80;48.70
1175;DHT22;576;48.418;10.074;2023-02-11T15:14:07;22.80;48.70
1175;DHT22;576;48.418;10.074;2023-02-11T15:16:40;22.80;48.70
1175;DHT22;576;48.418;10.074;2023-02-11T15:19:18;22.80;49.50
1175;DHT22;576;48.418;10.074;2023-02-11T15:21:48;22.70;49.20
1175;DHT22;576;48.418;10.074;2023-02-11T15:24:24;22.70;49.20
1175;DHT22;576;48.418;10.074;2023-02-11T15:27:00;22.70;49.30
1175;DHT22;576;48.418;10.074;2023-02-11T15:29:35;22.60;49.40
1175;DHT22;576;48.418;10.074;2023-02-11T15:32:05;22.60;49.40
1175;DHT22;576;48.418;10.074;2023-02-11T15:34:35;22.60;49.50
1175;DHT22;576;48.418;10.074;2023-02-11T15:37:03;22.60;49.40
1175;DHT22;576;48.418;10.074;2023-02-11T15:39:36;22.50;49.40
1175;DHT22;576;48.418;10.074;2023-02-11T15:42:24;22.50;49.40
1175;DHT22;576;48.418;10.074;2023-02-11T15:45:10;22.50;49.40
1175;DHT22;576;48.418;10.074;2023-02-11T15:47:51;22.50;49.40
1175;DHT22;576;48.418;10.074;2023-02-11T15:50:22;22.50;49.40
1175;DHT22;576;48.418;10.074;2023-02-11T15:52:51;22.50;49.40
1175;DHT22;576;48.418;10.074;2023-02-11T15:55:22;22.50;49.40
1175;DHT22;576;48.418;10.074;2023-02-11T15:57:54;22.50;49.40
1175;DHT22;576;48.418;10.074;2023-02-11T16:00:27;22.60;49.30
1175;DHT22;576;48.418;10.074;2023-02-11T16:02:57;22.60;49.30
1175;DHT22;576;48.418;10.074;2023-02-11T16:05:31;22.60;49.10
1175;DHT22;576;48.418;10.074;2023-02-11T16:08:11;22.60;49.10
1175;DHT22;576;48.418;10.074;2023-02-11T16:10:53;22.70;49.10
1175;DHT22;576;48.418;10.074;2023-02-11T16:13:25;22.70;49.00
1175;DHT22;576;48.418;10.074;2023-02-11T16:15:56;22.70;49.00
1175;DHT22;576;48.418;10.074;2023-02-11T16:18:31;22.70;49.00
1175;DHT22;576;48.418;10.074;2023-02-11T16:21:11;22.70;49.00
1175;DHT22;576;48.418;10.074;2023-02-11T16:23:49;22.70;49.00
1175;DHT22;576;48.418;10.074;2023-02-11T16:26:27;22.60;49.00
1175;DHT22;576;48.418;10.074;2023-02-11T16:29:05;22.60;49.00
1175;DHT22;576;48.418;10.074;2023-02-11T16:31:35;22.60;49.10
1175;DHT22;576;48.418;10.074;2023-02-11T16:34:10;22.50;49.10
1175;DHT22;576;48.418;10.074;2023-02-11T16:36:41;22.50;49.20
1175;DHT22;576;48.418;10.074;2023-02-11T16:39:10;22.50;49.20
1175;DHT22;576;48.418;10.074;2023-02-11T16:41:40;22.40;49.30
1175;DHT22;576;48.418;10.074;2023-02-11T16:44:08;22.40;49.30
1175;DHT22;576;48.418;10.074;2023-02-11T16:46:37;22.40;49.40
1175;DHT22;576;48.418;10.074;2023-02-11T16:49:09;22.40;49.40
1175;DHT22;576;48.418;10.074;2023-02-11T16:51:40;22.30;49.40